createdAt,value
2023-08-07T00:00:04.022Z,1.10
2023-08-07T00:02:30.411Z,0.90
2023-08-07T00:04:56.774Z,1.20
2023-08-07T00:07:23.179Z,1.00
2023-08-07T00:09:49.596Z,1.00
2023-08-07T00:12:16.038Z,1.00
2023-08-07T00:14:42.427Z,1.35
2023-08-07T00:17:08.853Z,1.10
2023-08-07T00:19:35.504Z,1.30
2023-08-07T00:22:01.873Z,1.60
2023-08-07T00:24:28.245Z,1.70
2023-08-07T00:26:54.822Z,1.60
2023-08-07T00:29:21.391Z,1.58
2023-08-07T00:31:47.889Z,1.43
2023-08-07T00:34:14.309Z,1.58
2023-08-07T00:36:40.667Z,1.40
2023-08-07T00:39:07.027Z,1.20
2023-08-07T00:41:33.404Z,1.30
2023-08-07T00:43:59.790Z,1.40
2023-08-07T00:46:27.650Z,1.35
2023-08-07T00:48:54.136Z,1.40
2023-08-07T00:51:21.231Z,1.00
2023-08-07T00:53:47.992Z,1.10
2023-08-07T00:56:14.543Z,1.20
2023-08-07T00:58:41.099Z,1.38
2023-08-07T01:01:07.596Z,1.30
2023-08-07T01:03:34.058Z,1.10
2023-08-07T01:06:00.661Z,1.42
2023-08-07T01:08:27.609Z,1.20
2023-08-07T01:11:15.348Z,1.00
2023-08-07T01:13:50.318Z,1.30
2023-08-07T01:16:23.284Z,1.15
2023-08-07T01:18:50.226Z,1.33
2023-08-07T01:21:20.330Z,1.40
2023-08-07T01:23:49.890Z,1.30
2023-08-07T01:26:19.612Z,1.10
2023-08-07T01:29:07.685Z,1.33
2023-08-07T01:31:35.134Z,1.33
2023-08-07T01:34:05.886Z,1.63
2023-08-07T01:36:33.019Z,1.38
2023-08-07T01:39:00.779Z,1.38
2023-08-07T01:41:27.252Z,1.20
2023-08-07T01:43:55.739Z,1.33
2023-08-07T01:46:22.189Z,1.47
2023-08-07T01:48:48.610Z,1.50
2023-08-07T01:51:15.086Z,1.13
2023-08-07T01:53:41.469Z,1.48
2023-08-07T01:56:07.845Z,1.67
2023-08-07T01:58:34.215Z,1.57
2023-08-07T02:01:00.586Z,1.42
2023-08-07T02:03:27.523Z,1.13
2023-08-07T02:05:53.925Z,1.52
2023-08-07T02:08:20.570Z,1.30
2023-08-07T02:10:46.970Z,1.43
2023-08-07T02:13:13.349Z,1.60
2023-08-07T02:15:39.703Z,1.50
2023-08-07T02:18:06.083Z,1.52
2023-08-07T02:20:32.467Z,1.70
2023-08-07T02:22:58.910Z,1.80
2023-08-07T02:25:25.265Z,1.60
2023-08-07T02:27:51.643Z,1.30
2023-08-07T02:30:18.042Z,1.58
2023-08-07T02:32:44.501Z,1.60
2023-08-07T02:35:11.703Z,1.60
2023-08-07T02:37:38.139Z,1.50
2023-08-07T02:40:04.981Z,1.50
2023-08-07T02:42:31.359Z,1.58
2023-08-07T02:44:57.726Z,1.80
2023-08-07T02:47:24.122Z,1.50
2023-08-07T02:49:50.539Z,1.70
2023-08-07T02:52:16.900Z,2.10
2023-08-07T02:54:43.299Z,1.55
2023-08-07T02:57:11.249Z,1.70
2023-08-07T02:59:37.625Z,1.80
2023-08-07T03:02:04.184Z,1.60
2023-08-07T03:04:30.570Z,1.83
2023-08-07T03:06:57.220Z,1.40
2023-08-07T03:09:23.844Z,1.67
2023-08-07T03:11:50.224Z,1.80
2023-08-07T03:14:16.694Z,1.70
2023-08-07T03:16:43.122Z,1.50
2023-08-07T03:19:09.544Z,1.60
2023-08-07T03:21:35.922Z,1.60
2023-08-07T03:24:02.299Z,1.73
2023-08-07T03:26:28.678Z,2.03
2023-08-07T03:28:55.068Z,1.90
2023-08-07T03:31:21.481Z,2.22
2023-08-07T03:33:47.947Z,1.48
2023-08-07T03:36:14.338Z,1.60
2023-08-07T03:38:40.733Z,1.90
2023-08-07T03:41:07.107Z,1.77
2023-08-07T03:43:33.530Z,1.77
2023-08-07T03:46:03.040Z,2.10
2023-08-07T03:48:30.195Z,2.20
2023-08-07T03:51:03.663Z,2.33
2023-08-07T03:53:30.038Z,1.95
2023-08-07T03:55:56.425Z,2.05
2023-08-07T03:58:22.814Z,2.00
2023-08-07T04:00:49.289Z,1.97
2023-08-07T04:03:15.741Z,2.00
2023-08-07T04:05:42.211Z,1.83
2023-08-07T04:08:08.603Z,2.05
2023-08-07T04:10:34.992Z,2.20
2023-08-07T04:13:01.363Z,1.80
2023-08-07T04:15:27.790Z,1.75
2023-08-07T04:17:54.214Z,1.60
2023-08-07T04:20:20.606Z,1.50
2023-08-07T04:22:47.098Z,1.80
2023-08-07T04:25:13.649Z,1.80
2023-08-07T04:27:40.009Z,1.15
2023-08-07T04:30:07.232Z,1.48
2023-08-07T04:32:33.638Z,1.50
2023-08-07T04:35:00.066Z,1.20
2023-08-07T04:37:26.484Z,1.73
2023-08-07T04:39:52.858Z,1.52
2023-08-07T04:42:19.235Z,1.20
2023-08-07T04:44:45.614Z,1.17
2023-08-07T04:47:11.999Z,1.52
2023-08-07T04:49:38.402Z,1.40
2023-08-07T04:52:16.631Z,1.17
2023-08-07T04:54:51.010Z,1.33
2023-08-07T04:57:17.398Z,1.00
2023-08-07T04:59:43.779Z,1.00
2023-08-07T05:02:10.166Z,1.10
2023-08-07T05:04:36.684Z,0.90
2023-08-07T05:07:03.071Z,1.38
2023-08-07T05:09:29.441Z,1.25
2023-08-07T05:11:56.014Z,1.02
2023-08-07T05:14:22.597Z,1.20
2023-08-07T05:16:49.144Z,1.08
2023-08-07T05:19:15.537Z,1.00
2023-08-07T05:21:41.928Z,1.00
2023-08-07T05:24:08.306Z,1.10
2023-08-07T05:26:34.768Z,0.80
2023-08-07T05:29:01.135Z,1.00
2023-08-07T05:31:29.634Z,1.10
2023-08-07T05:33:56.233Z,0.98
2023-08-07T05:36:22.646Z,1.20
2023-08-07T05:38:49.028Z,1.00
2023-08-07T05:41:15.393Z,0.90
2023-08-07T05:43:41.837Z,1.08
2023-08-07T05:46:08.280Z,1.00
2023-08-07T05:48:34.848Z,1.15
2023-08-07T05:51:01.234Z,0.90
2023-08-07T05:53:27.638Z,0.90
2023-08-07T05:55:54.079Z,0.80
2023-08-07T05:58:20.477Z,0.50
2023-08-07T06:00:46.985Z,0.80
2023-08-07T06:03:13.386Z,0.90
2023-08-07T06:05:39.789Z,0.88
2023-08-07T06:08:06.264Z,0.90
2023-08-07T06:10:32.675Z,0.90
2023-08-07T06:12:59.118Z,0.70
2023-08-07T06:15:25.493Z,0.70
2023-08-07T06:17:51.937Z,1.10
2023-08-07T06:20:18.456Z,0.77
2023-08-07T06:22:45.580Z,0.60
2023-08-07T06:25:12.054Z,0.90
2023-08-07T06:27:38.466Z,0.80
2023-08-07T06:30:05.259Z,0.80
2023-08-07T06:32:33.096Z,0.63
2023-08-07T06:34:59.509Z,0.60
2023-08-07T06:37:25.894Z,0.65
2023-08-07T06:39:52.381Z,0.60
2023-08-07T06:42:18.754Z,0.60
2023-08-07T06:44:45.181Z,0.52
2023-08-07T06:47:11.587Z,0.50
2023-08-07T06:49:38.023Z,0.60
2023-08-07T06:52:04.944Z,0.43
2023-08-07T06:54:31.301Z,0.47
2023-08-07T06:56:57.693Z,0.60
2023-08-07T06:59:24.083Z,0.77
2023-08-07T07:01:50.527Z,0.50
2023-08-07T07:04:16.932Z,0.60
2023-08-07T07:06:43.308Z,0.65
2023-08-07T07:09:09.852Z,0.70
2023-08-07T07:11:36.250Z,0.50
2023-08-07T07:14:02.718Z,1.05
2023-08-07T07:16:31.078Z,0.80
2023-08-07T07:18:57.704Z,0.70
2023-08-07T07:21:25.082Z,0.70
2023-08-07T07:23:51.454Z,0.70
2023-08-07T07:26:17.843Z,1.00
2023-08-07T07:28:44.226Z,0.50
2023-08-07T07:31:10.635Z,0.60
2023-08-07T07:33:38.195Z,0.60
2023-08-07T07:36:06.286Z,0.80
2023-08-07T07:38:32.658Z,0.70
2023-08-07T07:40:59.016Z,0.67
2023-08-07T07:43:25.396Z,0.80
2023-08-07T07:45:51.826Z,0.68
2023-08-07T07:48:18.216Z,0.80
2023-08-07T07:50:44.635Z,0.80
2023-08-07T07:53:11.090Z,0.73
2023-08-07T07:55:37.601Z,0.80
2023-08-07T07:58:03.999Z,0.60
2023-08-07T08:00:30.477Z,0.70
2023-08-07T08:02:56.884Z,0.60
2023-08-07T08:05:23.398Z,0.80
2023-08-07T08:07:49.842Z,0.60
2023-08-07T08:10:16.393Z,0.70
2023-08-07T08:12:42.793Z,0.73
2023-08-07T08:15:09.580Z,0.80
2023-08-07T08:17:36.009Z,0.63
2023-08-07T08:20:02.469Z,0.75
2023-08-07T08:22:28.840Z,0.63
2023-08-07T08:24:55.213Z,0.60
2023-08-07T08:27:21.587Z,0.60
2023-08-07T08:29:47.967Z,0.60
2023-08-07T08:32:14.364Z,0.50
2023-08-07T08:34:40.791Z,0.57
2023-08-07T08:37:07.257Z,0.60
2023-08-07T08:39:33.713Z,0.50
2023-08-07T08:42:00.392Z,0.60
2023-08-07T08:44:27.302Z,0.70
2023-08-07T08:46:54.042Z,0.60
2023-08-07T08:49:36.562Z,0.60
2023-08-07T08:52:03.759Z,0.80
2023-08-07T08:54:30.219Z,0.80
2023-08-07T08:56:58.360Z,0.70
2023-08-07T08:59:25.005Z,0.90
2023-08-07T09:01:52.252Z,0.77
2023-08-07T09:04:19.526Z,1.00
2023-08-07T09:06:46.603Z,0.80
2023-08-07T09:09:14.555Z,1.10
2023-08-07T09:11:46.664Z,0.90
2023-08-07T09:14:17.047Z,1.00
2023-08-07T09:16:45.576Z,0.80
2023-08-07T09:19:11.949Z,0.90
2023-08-07T09:21:38.343Z,1.00
2023-08-07T09:24:04.795Z,0.80
2023-08-07T09:26:33.441Z,0.70
2023-08-07T09:28:59.847Z,0.70
2023-08-07T09:31:26.817Z,0.90
2023-08-07T09:33:53.674Z,0.80
2023-08-07T09:36:20.073Z,0.90
2023-08-07T09:38:52.596Z,0.80
2023-08-07T09:41:19.675Z,0.82
2023-08-07T09:43:46.052Z,0.60
2023-08-07T09:46:12.494Z,1.00
2023-08-07T09:48:45.074Z,2.28
2023-08-07T09:51:11.857Z,0.90
2023-08-07T09:53:38.427Z,0.88
2023-08-07T09:56:05.002Z,0.80
2023-08-07T09:58:31.658Z,0.70
2023-08-07T10:01:01.504Z,0.65
2023-08-07T10:03:28.223Z,0.70
2023-08-07T10:05:55.456Z,0.70
2023-08-07T10:08:22.914Z,0.83
2023-08-07T10:10:49.333Z,0.80
2023-08-07T10:13:17.335Z,0.60
2023-08-07T10:15:45.372Z,0.60
2023-08-07T10:18:11.823Z,0.70
2023-08-07T10:20:39.094Z,0.70
2023-08-07T10:23:08.378Z,0.70
2023-08-07T10:25:35.863Z,0.77
2023-08-07T10:28:02.961Z,0.60
2023-08-07T10:30:30.431Z,0.73
2023-08-07T10:32:58.566Z,0.50
2023-08-07T10:35:31.075Z,0.60
2023-08-07T10:38:07.523Z,0.60
2023-08-07T10:40:33.908Z,0.50
2023-08-07T10:43:13.505Z,0.50
2023-08-07T10:45:39.949Z,0.60
2023-08-07T10:48:07.240Z,0.60
2023-08-07T10:50:34.229Z,0.50
2023-08-07T10:53:03.968Z,0.65
2023-08-07T10:55:46.560Z,0.70
2023-08-07T10:58:34.662Z,0.73
2023-08-07T11:01:22.810Z,0.60
2023-08-07T11:03:59.767Z,0.50
2023-08-07T11:06:30.663Z,0.60
2023-08-07T11:08:57.200Z,0.50
2023-08-07T11:11:23.772Z,0.43
2023-08-07T11:13:50.284Z,0.47
2023-08-07T11:16:16.870Z,0.60
2023-08-07T11:18:43.724Z,0.65
2023-08-07T11:21:11.010Z,0.50
2023-08-07T11:23:38.426Z,0.50
2023-08-07T11:26:04.914Z,0.52
2023-08-07T11:28:31.283Z,0.40
2023-08-07T11:30:58.131Z,0.50
2023-08-07T11:33:25.184Z,0.32
2023-08-07T11:35:52.454Z,0.40
2023-08-07T11:38:39.392Z,0.40
2023-08-07T11:41:07.346Z,0.40
2023-08-07T11:43:37.736Z,0.30
2023-08-07T11:46:08.768Z,0.38
2023-08-07T11:48:37.190Z,0.40
2023-08-07T11:51:04.080Z,0.40
2023-08-07T11:53:32.277Z,0.47
2023-08-07T11:56:02.178Z,0.40
2023-08-07T11:58:35.749Z,0.50
2023-08-07T12:01:31.481Z,0.50
2023-08-07T12:04:09.833Z,0.32
2023-08-07T12:06:36.762Z,0.40
2023-08-07T12:09:03.838Z,0.30
2023-08-07T12:11:31.005Z,0.45
2023-08-07T12:13:57.435Z,0.33
2023-08-07T12:16:23.869Z,0.30
2023-08-07T12:18:52.216Z,0.40
2023-08-07T12:21:21.347Z,0.35
2023-08-07T12:23:47.782Z,0.30
2023-08-07T12:26:14.350Z,0.30
2023-08-07T12:28:40.719Z,0.47
2023-08-07T12:31:07.261Z,0.40
2023-08-07T12:33:34.078Z,0.30
2023-08-07T12:36:01.229Z,0.40
2023-08-07T12:38:27.715Z,0.27
2023-08-07T12:40:54.226Z,0.35
2023-08-07T12:43:20.900Z,0.22
2023-08-07T12:48:16.894Z,0.40
2023-08-07T12:50:43.338Z,0.40
2023-08-07T12:53:09.751Z,0.30
2023-08-07T12:55:36.147Z,0.40
2023-08-07T12:58:02.567Z,0.30
2023-08-07T13:00:29.150Z,0.30
2023-08-07T13:02:55.740Z,0.40
2023-08-07T13:05:22.895Z,0.40
2023-08-07T13:07:49.556Z,0.20
2023-08-07T13:10:17.156Z,0.30
2023-08-07T13:12:45.528Z,0.32
2023-08-07T13:15:16.377Z,0.30
2023-08-07T13:17:44.186Z,0.50
2023-08-07T13:20:12.072Z,0.32
2023-08-07T13:22:39.386Z,0.40
2023-08-07T13:25:06.302Z,0.32
2023-08-07T13:27:33.435Z,0.60
2023-08-07T13:29:59.827Z,0.30
2023-08-07T13:32:29.282Z,0.40
2023-08-07T13:34:55.685Z,0.30
2023-08-07T13:37:22.286Z,0.38
2023-08-07T13:39:48.660Z,0.40
2023-08-07T13:42:15.091Z,0.30
2023-08-07T13:44:41.483Z,0.40
2023-08-07T13:47:07.891Z,0.30
2023-08-07T13:49:35.206Z,0.40
2023-08-07T13:52:01.698Z,0.40
2023-08-07T13:54:28.198Z,0.30
2023-08-07T13:56:54.593Z,0.40
2023-08-07T13:59:20.984Z,0.30
2023-08-07T14:01:47.410Z,0.30
2023-08-07T14:04:13.833Z,0.37
2023-08-07T14:06:40.477Z,0.40
2023-08-07T14:09:08.652Z,0.40
2023-08-07T14:11:37.688Z,0.32
2023-08-07T14:14:05.253Z,0.40
2023-08-07T14:16:32.040Z,0.43
2023-08-07T14:19:01.495Z,0.50
2023-08-07T14:21:30.087Z,0.70
2023-08-07T14:23:56.875Z,0.30
2023-08-07T14:26:23.512Z,0.80
2023-08-07T14:28:51.940Z,0.60
2023-08-07T14:31:23.631Z,0.60
2023-08-07T14:33:50.736Z,0.50
2023-08-07T14:36:18.500Z,0.80
2023-08-07T14:38:47.138Z,0.47
2023-08-07T14:41:16.698Z,0.60
2023-08-07T14:43:45.686Z,0.60
2023-08-07T14:46:12.456Z,0.60
2023-08-07T14:48:39.172Z,0.63
2023-08-07T14:51:05.906Z,0.80
2023-08-07T14:53:38.683Z,0.80
2023-08-07T14:56:05.429Z,0.73
2023-08-07T14:58:33.673Z,0.70
2023-08-07T15:01:05.314Z,0.70
2023-08-07T15:03:31.941Z,0.68
2023-08-07T15:05:58.366Z,0.50
2023-08-07T15:08:24.913Z,0.60
2023-08-07T15:10:52.995Z,0.60
2023-08-07T15:13:19.378Z,0.40
2023-08-07T15:15:45.817Z,0.40
2023-08-07T15:18:12.210Z,0.60
2023-08-07T15:20:38.634Z,0.63
2023-08-07T15:23:05.055Z,0.50
2023-08-07T15:25:32.570Z,1.15
2023-08-07T15:27:58.970Z,0.60
2023-08-07T15:30:27.793Z,0.50
2023-08-07T15:32:54.496Z,0.65
2023-08-07T15:35:21.024Z,0.68
2023-08-07T15:37:48.456Z,0.40
2023-08-07T15:40:14.841Z,0.60
2023-08-07T15:42:41.235Z,0.70
2023-08-07T15:45:08.456Z,0.50
2023-08-07T15:47:34.943Z,0.50
2023-08-07T15:50:01.492Z,0.52
2023-08-07T15:52:27.998Z,0.60
2023-08-07T15:54:54.384Z,0.87
2023-08-07T15:57:20.845Z,0.63
2023-08-07T15:59:47.243Z,0.70
2023-08-07T16:02:14.062Z,0.70
2023-08-07T16:04:40.506Z,0.70
2023-08-07T16:07:06.885Z,0.83
2023-08-07T16:09:33.265Z,0.73
2023-08-07T16:11:59.797Z,0.70
2023-08-07T16:14:26.175Z,0.70
2023-08-07T16:16:53.352Z,0.80
2023-08-07T16:19:19.982Z,1.03
2023-08-07T16:21:47.631Z,0.60
2023-08-07T16:24:14.020Z,0.80
2023-08-07T16:26:41.553Z,0.80
2023-08-07T16:29:10.803Z,0.65
2023-08-07T16:31:37.206Z,0.90
2023-08-07T16:34:03.602Z,0.90
2023-08-07T16:36:31.101Z,1.00
2023-08-07T16:38:57.460Z,0.75
2023-08-07T16:41:23.905Z,0.90
2023-08-07T16:43:50.479Z,0.90
2023-08-07T16:46:16.920Z,1.33
2023-08-07T16:48:43.846Z,0.95
2023-08-07T16:51:15.680Z,1.15
2023-08-07T16:53:43.259Z,1.00
2023-08-07T16:56:10.537Z,1.20
2023-08-07T16:58:37.064Z,1.23
2023-08-07T17:01:03.461Z,1.10
2023-08-07T17:03:29.960Z,1.20
2023-08-07T17:05:56.388Z,1.73
2023-08-07T17:08:23.138Z,1.00
2023-08-07T17:10:49.585Z,1.42
2023-08-07T17:13:16.235Z,1.20
2023-08-07T17:15:42.712Z,1.20
2023-08-07T17:18:09.261Z,1.27
2023-08-07T17:20:35.671Z,1.37
2023-08-07T17:23:02.057Z,1.30
2023-08-07T17:25:28.413Z,1.42
2023-08-07T17:27:54.921Z,0.90
2023-08-07T17:30:21.320Z,1.30
2023-08-07T17:32:47.730Z,1.60
2023-08-07T17:35:14.150Z,1.40
2023-08-07T17:37:40.526Z,1.60
2023-08-07T17:40:07.274Z,1.20
2023-08-07T17:42:33.677Z,1.30
2023-08-07T17:45:00.123Z,1.50
2023-08-07T17:47:26.567Z,1.30
2023-08-07T17:49:52.997Z,1.50
2023-08-07T17:52:19.642Z,1.50
2023-08-07T17:54:46.033Z,1.17
2023-08-07T17:57:12.447Z,1.03
2023-08-07T17:59:38.823Z,1.40
2023-08-07T18:02:05.247Z,1.38
2023-08-07T18:04:31.657Z,1.10
2023-08-07T18:06:58.191Z,1.20
2023-08-07T18:09:24.825Z,1.37
2023-08-07T18:11:51.262Z,1.35
2023-08-07T18:14:17.652Z,1.38
2023-08-07T18:16:44.152Z,1.40
2023-08-07T18:19:10.537Z,1.40
2023-08-07T18:21:36.901Z,1.50
2023-08-07T18:24:03.405Z,1.20
2023-08-07T18:26:29.790Z,1.30
2023-08-07T18:28:56.309Z,1.50
2023-08-07T18:31:22.840Z,1.30
2023-08-07T18:33:49.238Z,1.93
2023-08-07T18:36:15.723Z,1.30
2023-08-07T18:38:42.125Z,1.75
2023-08-07T18:41:08.489Z,1.10
2023-08-07T18:43:34.876Z,1.45
2023-08-07T18:46:01.271Z,1.57
2023-08-07T18:48:27.698Z,1.35
2023-08-07T18:50:54.073Z,1.42
2023-08-07T18:53:20.468Z,1.20
2023-08-07T18:55:46.877Z,1.50
2023-08-07T18:58:13.263Z,1.30
2023-08-07T19:00:39.700Z,1.63
2023-08-07T19:03:06.165Z,1.30
2023-08-07T19:05:32.606Z,1.50
2023-08-07T19:07:58.999Z,1.30
2023-08-07T19:10:25.389Z,1.67
2023-08-07T19:12:51.820Z,1.27
2023-08-07T19:15:18.225Z,1.35
2023-08-07T19:17:44.758Z,1.20
2023-08-07T19:20:12.486Z,1.20
2023-08-07T19:22:38.926Z,1.63
2023-08-07T19:25:05.733Z,1.90
2023-08-07T19:27:32.133Z,1.20
2023-08-07T19:29:58.543Z,1.00
2023-08-07T19:32:25.100Z,1.50
2023-08-07T19:34:51.516Z,1.70
2023-08-07T19:37:17.867Z,1.50
2023-08-07T19:39:44.336Z,1.60
2023-08-07T19:42:10.708Z,1.10
2023-08-07T19:44:37.175Z,1.60
2023-08-07T19:47:03.815Z,1.57
2023-08-07T19:49:30.187Z,1.48
2023-08-07T19:51:56.592Z,1.50
2023-08-07T19:54:22.982Z,2.20
2023-08-07T19:56:49.371Z,1.45
2023-08-07T19:59:15.819Z,1.87
2023-08-07T20:01:42.226Z,1.50
2023-08-07T20:04:08.769Z,1.40
2023-08-07T20:06:35.180Z,1.42
2023-08-07T20:09:01.546Z,1.38
2023-08-07T20:11:28.036Z,1.37
2023-08-07T20:13:54.470Z,1.52
2023-08-07T20:16:20.889Z,1.58
2023-08-07T20:18:47.356Z,1.70
2023-08-07T20:21:15.732Z,1.70
2023-08-07T20:23:43.070Z,1.40
2023-08-07T20:26:09.466Z,1.80
2023-08-07T20:28:35.876Z,1.67
2023-08-07T20:31:02.293Z,2.72
2023-08-07T20:33:28.737Z,1.42
2023-08-07T20:35:55.120Z,1.60
2023-08-07T20:38:21.520Z,2.00
2023-08-07T20:40:47.921Z,1.35
2023-08-07T20:43:14.377Z,1.50
2023-08-07T20:45:40.781Z,1.48
2023-08-07T20:48:07.348Z,1.43
2023-08-07T20:50:34.550Z,1.30
2023-08-07T20:53:00.908Z,1.40
2023-08-07T20:55:27.286Z,1.20
2023-08-07T20:57:53.655Z,1.60
2023-08-07T21:00:20.116Z,1.27
2023-08-07T21:02:46.532Z,1.17
2023-08-07T21:05:13.049Z,1.10
2023-08-07T21:07:39.535Z,1.25
2023-08-07T21:10:06.459Z,1.30
2023-08-07T21:12:32.831Z,1.20
2023-08-07T21:14:59.232Z,1.33
2023-08-07T21:17:25.603Z,1.20
2023-08-07T21:19:51.978Z,1.23
2023-08-07T21:22:18.360Z,1.25
2023-08-07T21:24:44.744Z,1.20
2023-08-07T21:27:11.119Z,1.10
2023-08-07T21:29:37.594Z,1.73
2023-08-07T21:32:04.269Z,1.55
2023-08-07T21:34:30.700Z,1.20
2023-08-07T21:36:57.087Z,1.30
2023-08-07T21:39:23.513Z,1.40
2023-08-07T21:41:50.987Z,1.52
2023-08-07T21:44:17.390Z,1.30
2023-08-07T21:46:43.924Z,1.42
2023-08-07T21:49:11.112Z,1.67
2023-08-07T21:51:38.567Z,1.73
2023-08-07T21:54:04.957Z,2.10
2023-08-07T21:56:31.362Z,1.40
2023-08-07T21:58:57.770Z,1.60
2023-08-07T22:01:24.198Z,1.30
2023-08-07T22:03:50.735Z,1.20
2023-08-07T22:06:17.175Z,1.27
2023-08-07T22:08:43.727Z,1.25
2023-08-07T22:11:10.134Z,1.67
2023-08-07T22:13:36.524Z,1.30
2023-08-07T22:16:02.997Z,1.58
2023-08-07T22:18:29.420Z,1.50
2023-08-07T22:20:55.794Z,1.42
2023-08-07T22:23:22.161Z,1.30
2023-08-07T22:25:48.540Z,1.50
2023-08-07T22:28:14.905Z,1.38
2023-08-07T22:30:41.333Z,1.52
2023-08-07T22:33:07.807Z,1.20
2023-08-07T22:35:34.228Z,1.58
2023-08-07T22:38:00.607Z,1.30
2023-08-07T22:40:27.018Z,1.55
2023-08-07T22:42:53.414Z,1.38
2023-08-07T22:45:19.889Z,1.35
2023-08-07T22:47:47.079Z,1.15
2023-08-07T22:50:13.605Z,1.80
2023-08-07T22:52:40.036Z,1.70
2023-08-07T22:55:06.748Z,2.13
2023-08-07T22:57:33.109Z,1.33
2023-08-07T22:59:59.495Z,1.50
2023-08-07T23:02:25.911Z,1.37
2023-08-07T23:04:52.342Z,1.20
2023-08-07T23:07:18.721Z,1.30
2023-08-07T23:09:45.095Z,1.45
2023-08-07T23:12:11.479Z,1.50
2023-08-07T23:14:37.849Z,1.40
2023-08-07T23:17:04.460Z,1.30
2023-08-07T23:19:31.545Z,1.38
2023-08-07T23:21:58.340Z,1.30
2023-08-07T23:24:24.866Z,1.52
2023-08-07T23:26:51.251Z,1.23
2023-08-07T23:29:17.613Z,1.30
2023-08-07T23:31:44.025Z,1.38
2023-08-07T23:34:10.417Z,1.35
2023-08-07T23:36:37.326Z,1.52
2023-08-07T23:39:03.858Z,1.60
2023-08-07T23:41:30.252Z,1.52
2023-08-07T23:43:56.622Z,1.40
2023-08-07T23:46:23.051Z,1.40
2023-08-07T23:48:49.602Z,1.50
2023-08-07T23:51:15.986Z,1.40
2023-08-07T23:53:43.672Z,1.40
2023-08-07T23:56:10.096Z,1.80
2023-08-07T23:58:36.497Z,1.60
